Terminal Aerodrome Forecast
Issued by NWS

Home | Current Version | Previous Version | Text Only | Print | Product List | Glossary Off
Versions: 1 2 3 4 5 6 7 8 9 10 11 12 13 14 15 16 17 18 19 20

798
FTUS43 KTOP 150901 AAB
TAFFOE
TAF AMD
KFOE 150901Z 1509/1606 07005KT 6SM BR OVC022
      TEMPO 1509/1513 4SM -FZDZ OVC017
     FM151300 08005KT 6SM -FZRA BR OVC014
      TEMPO 1513/1517 3SM FZRA BR OVC007
     FM152200 08005KT 3SM BR VCSH OVC007=

USA.gov is the U.S. government's official web portal to all federal, state and local government web resources and services.